sensor_id;sensor_type;location;lat;lon;timestamp;P1;durP1;ratioP1;P2;durP2;ratioP2
74530;SDS011;63010;55.668;37.878;2022-09-03T00:05:37;2.22;;;1.00;;
74530;SDS011;63010;55.668;37.878;2022-09-03T00:08:09;2.95;;;1.17;;
74530;SDS011;63010;55.668;37.878;2022-09-03T00:13:36;2.00;;;1.40;;
74530;SDS011;63010;55.668;37.878;2022-09-03T00:16:07;2.83;;;1.70;;
74530;SDS011;63010;55.668;37.878;2022-09-03T00:18:40;3.33;;;1.70;;
74530;SDS011;63010;55.668;37.878;2022-09-03T00:21:10;2.80;;;1.70;;
74530;SDS011;63010;55.668;37.878;2022-09-03T00:23:40;2.53;;;1.65;;
74530;SDS011;63010;55.668;37.878;2022-09-03T00:28:40;2.58;;;1.50;;
74530;SDS011;63010;55.668;37.878;2022-09-03T00:31:13;2.38;;;1.60;;
74530;SDS011;63010;55.668;37.878;2022-09-03T00:33:43;2.20;;;1.30;;
74530;SDS011;63010;55.668;37.878;2022-09-03T00:36:24;3.20;;;1.13;;
74530;SDS011;63010;55.668;37.878;2022-09-03T00:38:57;2.22;;;1.15;;
74530;SDS011;63010;55.668;37.878;2022-09-03T00:44:14;1.63;;;0.82;;
74530;SDS011;63010;55.668;37.878;2022-09-03T00:51:54;3.30;;;1.00;;
74530;SDS011;63010;55.668;37.878;2022-09-03T00:54:35;2.03;;;0.88;;
74530;SDS011;63010;55.668;37.878;2022-09-03T01:00:10;2.05;;;0.70;;
74530;SDS011;63010;55.668;37.878;2022-09-03T01:05:53;4.18;;;0.73;;
74530;SDS011;63010;55.668;37.878;2022-09-03T01:17:31;1.38;;;0.90;;
74530;SDS011;63010;55.668;37.878;2022-09-03T01:28:32;1.35;;;0.73;;
74530;SDS011;63010;55.668;37.878;2022-09-03T01:33:37;3.38;;;1.17;;
74530;SDS011;63010;55.668;37.878;2022-09-03T01:38:49;1.92;;;1.15;;
74530;SDS011;63010;55.668;37.878;2022-09-03T01:46:56;2.55;;;1.25;;
74530;SDS011;63010;55.668;37.878;2022-09-03T01:54:46;4.72;;;1.55;;
74530;SDS011;63010;55.668;37.878;2022-09-03T02:00:04;3.13;;;1.60;;
74530;SDS011;63010;55.668;37.878;2022-09-03T02:02:30;2.63;;;1.48;;
74530;SDS011;63010;55.668;37.878;2022-09-03T02:05:00;4.10;;;1.50;;
74530;SDS011;63010;55.668;37.878;2022-09-03T02:07:29;2.75;;;1.60;;
74530;SDS011;63010;55.668;37.878;2022-09-03T02:10:00;3.58;;;1.55;;
74530;SDS011;63010;55.668;37.878;2022-09-03T02:12:28;3.65;;;2.00;;
74530;SDS011;63010;55.668;37.878;2022-09-03T02:15:00;3.67;;;1.63;;
74530;SDS011;63010;55.668;37.878;2022-09-03T02:17:30;4.95;;;1.42;;
74530;SDS011;63010;55.668;37.878;2022-09-03T02:19:58;3.15;;;1.42;;
74530;SDS011;63010;55.668;37.878;2022-09-03T02:22:29;6.20;;;1.92;;
74530;SDS011;63010;55.668;37.878;2022-09-03T02:24:55;5.13;;;1.50;;
74530;SDS011;63010;55.668;37.878;2022-09-03T02:27:20;2.83;;;1.70;;
74530;SDS011;63010;55.668;37.878;2022-09-03T02:29:46;3.30;;;1.52;;
74530;SDS011;63010;55.668;37.878;2022-09-03T02:32:12;2.63;;;1.80;;
74530;SDS011;63010;55.668;37.878;2022-09-03T02:34:40;3.13;;;1.80;;
74530;SDS011;63010;55.668;37.878;2022-09-03T02:37:13;5.45;;;1.70;;
74530;SDS011;63010;55.668;37.878;2022-09-03T02:39:40;4.18;;;1.77;;
74530;SDS011;63010;55.668;37.878;2022-09-03T02:42:05;4.50;;;1.80;;
74530;SDS011;63010;55.668;37.878;2022-09-03T02:44:35;3.95;;;1.80;;
74530;SDS011;63010;55.668;37.878;2022-09-03T02:47:05;3.03;;;1.50;;
74530;SDS011;63010;55.668;37.878;2022-09-03T02:49:33;3.65;;;1.85;;
74530;SDS011;63010;55.668;37.878;2022-09-03T02:51:59;4.75;;;1.95;;
74530;SDS011;63010;55.668;37.878;2022-09-03T02:54:31;5.78;;;2.10;;
74530;SDS011;63010;55.668;37.878;2022-09-03T02:57:00;4.25;;;1.98;;
74530;SDS011;63010;55.668;37.878;2022-09-03T02:59:26;3.65;;;1.88;;
74530;SDS011;63010;55.668;37.878;2022-09-03T03:01:52;2.97;;;1.70;;
74530;SDS011;63010;55.668;37.878;2022-09-03T03:04:19;3.88;;;2.45;;
74530;SDS011;63010;55.668;37.878;2022-09-03T03:06:45;5.35;;;2.40;;
74530;SDS011;63010;55.668;37.878;2022-09-03T03:09:10;3.55;;;1.80;;
74530;SDS011;63010;55.668;37.878;2022-09-03T03:11:36;3.90;;;1.70;;
74530;SDS011;63010;55.668;37.878;2022-09-03T03:14:03;5.03;;;2.00;;
74530;SDS011;63010;55.668;37.878;2022-09-03T03:16:29;2.38;;;1.60;;
74530;SDS011;63010;55.668;37.878;2022-09-03T03:18:55;4.13;;;2.05;;
74530;SDS011;63010;55.668;37.878;2022-09-03T03:21:21;3.75;;;1.88;;
74530;SDS011;63010;55.668;37.878;2022-09-03T03:23:46;5.38;;;2.20;;
74530;SDS011;63010;55.668;37.878;2022-09-03T03:26:13;5.70;;;1.88;;
74530;SDS011;63010;55.668;37.878;2022-09-03T03:28:44;5.13;;;2.08;;
74530;SDS011;63010;55.668;37.878;2022-09-03T03:31:20;6.22;;;2.25;;
74530;SDS011;63010;55.668;37.878;2022-09-03T03:33:55;2.70;;;2.00;;
74530;SDS011;63010;55.668;37.878;2022-09-03T03:36:23;3.15;;;2.10;;
74530;SDS011;63010;55.668;37.878;2022-09-03T03:38:54;4.53;;;2.30;;
74530;SDS011;63010;55.668;37.878;2022-09-03T03:41:24;5.05;;;2.40;;
74530;SDS011;63010;55.668;37.878;2022-09-03T03:43:52;4.15;;;2.28;;
74530;SDS011;63010;55.668;37.878;2022-09-03T03:46:23;6.03;;;2.00;;
74530;SDS011;63010;55.668;37.878;2022-09-03T03:48:52;5.05;;;2.10;;
74530;SDS011;63010;55.668;37.878;2022-09-03T03:51:17;5.25;;;2.28;;
74530;SDS011;63010;55.668;37.878;2022-09-03T03:53:43;2.47;;;2.00;;
74530;SDS011;63010;55.668;37.878;2022-09-03T03:56:11;3.40;;;1.90;;
74530;SDS011;63010;55.668;37.878;2022-09-03T03:58:38;2.67;;;2.13;;
74530;SDS011;63010;55.668;37.878;2022-09-03T04:03:38;4.03;;;2.30;;
74530;SDS011;63010;55.668;37.878;2022-09-03T04:06:04;4.15;;;2.25;;
74530;SDS011;63010;55.668;37.878;2022-09-03T04:10:59;3.28;;;1.63;;
74530;SDS011;63010;55.668;37.878;2022-09-03T04:13:29;5.13;;;2.20;;
74530;SDS011;63010;55.668;37.878;2022-09-03T04:18:32;6.22;;;2.22;;
74530;SDS011;63010;55.668;37.878;2022-09-03T04:21:06;3.17;;;2.20;;
74530;SDS011;63010;55.668;37.878;2022-09-03T04:23:34;4.22;;;2.13;;
74530;SDS011;63010;55.668;37.878;2022-09-03T04:26:01;2.60;;;1.73;;
74530;SDS011;63010;55.668;37.878;2022-09-03T04:28:27;4.10;;;2.22;;
74530;SDS011;63010;55.668;37.878;2022-09-03T04:30:53;5.00;;;2.60;;
74530;SDS011;63010;55.668;37.878;2022-09-03T04:33:19;4.32;;;1.92;;
74530;SDS011;63010;55.668;37.878;2022-09-03T04:35:45;3.83;;;2.85;;
74530;SDS011;63010;55.668;37.878;2022-09-03T04:38:10;3.13;;;2.58;;
74530;SDS011;63010;55.668;37.878;2022-09-03T04:40:36;5.20;;;2.25;;
74530;SDS011;63010;55.668;37.878;2022-09-03T04:43:02;2.60;;;1.77;;
74530;SDS011;63010;55.668;37.878;2022-09-03T04:45:28;3.47;;;2.20;;
74530;SDS011;63010;55.668;37.878;2022-09-03T04:47:55;3.22;;;1.75;;
74530;SDS011;63010;55.668;37.878;2022-09-03T04:50:24;3.88;;;2.40;;
74530;SDS011;63010;55.668;37.878;2022-09-03T04:52:52;6.40;;;2.45;;
74530;SDS011;63010;55.668;37.878;2022-09-03T04:55:20;4.30;;;2.55;;
74530;SDS011;63010;55.668;37.878;2022-09-03T05:00:12;4.00;;;2.03;;
74530;SDS011;63010;55.668;37.878;2022-09-03T05:02:38;3.53;;;2.17;;
74530;SDS011;63010;55.668;37.878;2022-09-03T05:05:03;4.05;;;2.42;;
74530;SDS011;63010;55.668;37.878;2022-09-03T05:07:30;3.72;;;1.90;;
74530;SDS011;63010;55.668;37.878;2022-09-03T05:10:06;4.75;;;2.55;;
74530;SDS011;63010;55.668;37.878;2022-09-03T05:12:33;2.63;;;1.80;;
74530;SDS011;63010;55.668;37.878;2022-09-03T05:14:59;5.20;;;1.80;;
74530;SDS011;63010;55.668;37.878;2022-09-03T05:17:25;2.65;;;2.00;;
74530;SDS011;63010;55.668;37.878;2022-09-03T05:19:51;4.13;;;2.05;;
74530;SDS011;63010;55.668;37.878;2022-09-03T05:22:17;5.53;;;2.65;;
74530;SDS011;63010;55.668;37.878;2022-09-03T05:24:48;4.25;;;2.10;;
74530;SDS011;63010;55.668;37.878;2022-09-03T05:27:14;4.72;;;2.35;;
74530;SDS011;63010;55.668;37.878;2022-09-03T05:29:43;3.58;;;2.22;;
74530;SDS011;63010;55.668;37.878;2022-09-03T05:32:09;4.93;;;2.40;;
74530;SDS011;63010;55.668;37.878;2022-09-03T05:34:36;5.60;;;2.28;;
74530;SDS011;63010;55.668;37.878;2022-09-03T05:37:02;2.47;;;1.90;;
74530;SDS011;63010;55.668;37.878;2022-09-03T05:39:27;2.90;;;2.20;;
74530;SDS011;63010;55.668;37.878;2022-09-03T05:41:53;4.63;;;2.75;;
74530;SDS011;63010;55.668;37.878;2022-09-03T05:44:18;3.08;;;2.13;;
74530;SDS011;63010;55.668;37.878;2022-09-03T05:46:47;2.88;;;2.33;;
74530;SDS011;63010;55.668;37.878;2022-09-03T05:51:39;2.70;;;1.98;;
74530;SDS011;63010;55.668;37.878;2022-09-03T05:54:04;5.85;;;3.10;;
74530;SDS011;63010;55.668;37.878;2022-09-03T05:56:32;5.35;;;2.38;;
74530;SDS011;63010;55.668;37.878;2022-09-03T05:59:01;3.08;;;2.47;;
74530;SDS011;63010;55.668;37.878;2022-09-03T06:01:36;3.38;;;2.22;;
74530;SDS011;63010;55.668;37.878;2022-09-03T06:04:08;4.20;;;1.88;;
74530;SDS011;63010;55.668;37.878;2022-09-03T06:06:38;6.03;;;3.00;;
74530;SDS011;63010;55.668;37.878;2022-09-03T06:09:10;4.13;;;2.33;;
74530;SDS011;63010;55.668;37.878;2022-09-03T06:11:38;7.32;;;3.08;;
74530;SDS011;63010;55.668;37.878;2022-09-03T06:14:09;5.95;;;1.58;;
74530;SDS011;63010;55.668;37.878;2022-09-03T06:16:39;3.28;;;1.48;;
74530;SDS011;63010;55.668;37.878;2022-09-03T06:19:07;3.35;;;1.65;;
74530;SDS011;63010;55.668;37.878;2022-09-03T06:21:38;5.10;;;1.95;;
74530;SDS011;63010;55.668;37.878;2022-09-03T06:24:12;3.15;;;1.67;;
74530;SDS011;63010;55.668;37.878;2022-09-03T06:26:40;3.60;;;1.58;;
74530;SDS011;63010;55.668;37.878;2022-09-03T06:29:05;6.07;;;2.25;;
74530;SDS011;63010;55.668;37.878;2022-09-03T06:31:32;3.15;;;1.73;;
74530;SDS011;63010;55.668;37.878;2022-09-03T06:33:57;3.40;;;1.75;;
74530;SDS011;63010;55.668;37.878;2022-09-03T06:36:23;2.92;;;1.90;;
74530;SDS011;63010;55.668;37.878;2022-09-03T06:38:51;3.55;;;1.67;;
74530;SDS011;63010;55.668;37.878;2022-09-03T06:41:18;3.10;;;1.60;;
74530;SDS011;63010;55.668;37.878;2022-09-03T06:43:49;1.45;;;1.00;;
74530;SDS011;63010;55.668;37.878;2022-09-03T06:46:17;3.25;;;1.40;;
74530;SDS011;63010;55.668;37.878;2022-09-03T06:48:44;1.48;;;0.90;;
74530;SDS011;63010;55.668;37.878;2022-09-03T06:51:21;6.72;;;1.52;;
74530;SDS011;63010;55.668;37.878;2022-09-03T06:53:49;2.40;;;1.40;;
74530;SDS011;63010;55.668;37.878;2022-09-03T06:56:17;6.30;;;1.65;;
74530;SDS011;63010;55.668;37.878;2022-09-03T06:58:50;1.63;;;1.30;;
74530;SDS011;63010;55.668;37.878;2022-09-03T07:01:21;4.75;;;1.58;;
74530;SDS011;63010;55.668;37.878;2022-09-03T07:03:59;1.17;;;1.05;;
74530;SDS011;63010;55.668;37.878;2022-09-03T07:06:28;3.28;;;1.38;;
74530;SDS011;63010;55.668;37.878;2022-09-03T07:08:55;3.58;;;1.42;;
74530;SDS011;63010;55.668;37.878;2022-09-03T07:11:22;1.60;;;1.10;;
74530;SDS011;63010;55.668;37.878;2022-09-03T07:13:51;2.67;;;1.40;;
74530;SDS011;63010;55.668;37.878;2022-09-03T07:16:31;1.85;;;1.17;;
74530;SDS011;63010;55.668;37.878;2022-09-03T07:18:58;4.03;;;1.15;;
74530;SDS011;63010;55.668;37.878;2022-09-03T07:21:25;4.28;;;1.40;;
74530;SDS011;63010;55.668;37.878;2022-09-03T07:23:52;3.78;;;1.00;;
74530;SDS011;63010;55.668;37.878;2022-09-03T07:26:23;2.47;;;1.38;;
74530;SDS011;63010;55.668;37.878;2022-09-03T07:28:50;3.50;;;1.30;;
74530;SDS011;63010;55.668;37.878;2022-09-03T07:33:57;2.70;;;1.70;;
74530;SDS011;63010;55.668;37.878;2022-09-03T07:36:25;1.23;;;1.08;;
74530;SDS011;63010;55.668;37.878;2022-09-03T07:38:57;2.15;;;1.42;;
74530;SDS011;63010;55.668;37.878;2022-09-03T07:41:23;5.70;;;1.35;;
74530;SDS011;63010;55.668;37.878;2022-09-03T07:43:51;2.33;;;1.05;;
74530;SDS011;63010;55.668;37.878;2022-09-03T07:46:21;2.33;;;1.38;;
74530;SDS011;63010;55.668;37.878;2022-09-03T07:48:49;2.38;;;1.20;;
74530;SDS011;63010;55.668;37.878;2022-09-03T07:51:17;3.42;;;1.40;;
74530;SDS011;63010;55.668;37.878;2022-09-03T07:53:44;1.58;;;0.82;;
74530;SDS011;63010;55.668;37.878;2022-09-03T07:56:10;3.15;;;1.77;;
74530;SDS011;63010;55.668;37.878;2022-09-03T07:58:37;4.78;;;1.63;;
74530;SDS011;63010;55.668;37.878;2022-09-03T08:01:04;3.72;;;1.40;;
74530;SDS011;63010;55.668;37.878;2022-09-03T08:03:33;2.88;;;1.45;;
74530;SDS011;63010;55.668;37.878;2022-09-03T08:06:02;10.90;;;1.63;;
74530;SDS011;63010;55.668;37.878;2022-09-03T08:08:29;1.67;;;1.38;;
74530;SDS011;63010;55.668;37.878;2022-09-03T08:11:02;3.28;;;1.55;;
74530;SDS011;63010;55.668;37.878;2022-09-03T08:13:47;3.72;;;2.13;;
74530;SDS011;63010;55.668;37.878;2022-09-03T08:16:26;4.85;;;1.60;;
74530;SDS011;63010;55.668;37.878;2022-09-03T08:18:56;2.80;;;1.75;;
74530;SDS011;63010;55.668;37.878;2022-09-03T08:21:22;3.28;;;2.05;;
74530;SDS011;63010;55.668;37.878;2022-09-03T08:23:49;3.78;;;1.50;;
74530;SDS011;63010;55.668;37.878;2022-09-03T08:26:18;3.28;;;1.50;;
74530;SDS011;63010;55.668;37.878;2022-09-03T08:28:44;2.20;;;1.60;;
74530;SDS011;63010;55.668;37.878;2022-09-03T08:31:14;2.50;;;2.22;;
74530;SDS011;63010;55.668;37.878;2022-09-03T08:33:43;5.35;;;1.90;;
74530;SDS011;63010;55.668;37.878;2022-09-03T08:36:15;4.10;;;2.10;;
74530;SDS011;63010;55.668;37.878;2022-09-03T08:38:41;1.58;;;1.45;;
74530;SDS011;63010;55.668;37.878;2022-09-03T08:41:17;5.95;;;2.03;;
74530;SDS011;63010;55.668;37.878;2022-09-03T08:46:20;2.75;;;1.70;;
74530;SDS011;63010;55.668;37.878;2022-09-03T08:48:51;6.78;;;1.80;;
74530;SDS011;63010;55.668;37.878;2022-09-03T08:51:18;3.35;;;1.75;;
74530;SDS011;63010;55.668;37.878;2022-09-03T08:53:52;3.10;;;1.77;;
74530;SDS011;63010;55.668;37.878;2022-09-03T08:56:27;4.75;;;1.10;;
74530;SDS011;63010;55.668;37.878;2022-09-03T08:58:54;3.90;;;1.60;;
74530;SDS011;63010;55.668;37.878;2022-09-03T09:10:09;2.90;;;1.52;;
74530;SDS011;63010;55.668;37.878;2022-09-03T09:23:04;6.78;;;2.97;;
74530;SDS011;63010;55.668;37.878;2022-09-03T09:25:31;1.70;;;1.20;;
74530;SDS011;63010;55.668;37.878;2022-09-03T09:28:03;4.93;;;1.92;;
74530;SDS011;63010;55.668;37.878;2022-09-03T09:30:41;1.73;;;1.63;;
74530;SDS011;63010;55.668;37.878;2022-09-03T09:33:11;2.20;;;1.38;;
74530;SDS011;63010;55.668;37.878;2022-09-03T09:35:38;1.75;;;1.50;;
74530;SDS011;63010;55.668;37.878;2022-09-03T09:38:06;3.00;;;1.70;;
74530;SDS011;63010;55.668;37.878;2022-09-03T09:40:33;2.97;;;1.88;;
74530;SDS011;63010;55.668;37.878;2022-09-03T09:45:44;2.42;;;2.08;;
74530;SDS011;63010;55.668;37.878;2022-09-03T09:51:12;4.45;;;1.52;;
74530;SDS011;63010;55.668;37.878;2022-09-03T09:53:42;1.90;;;1.50;;
74530;SDS011;63010;55.668;37.878;2022-09-03T09:56:19;3.17;;;1.67;;
74530;SDS011;63010;55.668;37.878;2022-09-03T09:58:46;3.08;;;1.58;;
74530;SDS011;63010;55.668;37.878;2022-09-03T10:01:20;2.53;;;1.80;;
74530;SDS011;63010;55.668;37.878;2022-09-03T10:03:54;2.90;;;1.48;;
74530;SDS011;63010;55.668;37.878;2022-09-03T10:06:25;2.70;;;2.35;;
74530;SDS011;63010;55.668;37.878;2022-09-03T10:09:12;2.90;;;1.60;;
74530;SDS011;63010;55.668;37.878;2022-09-03T10:11:43;4.03;;;2.42;;
74530;SDS011;63010;55.668;37.878;2022-09-03T10:16:50;3.50;;;1.90;;
74530;SDS011;63010;55.668;37.878;2022-09-03T10:19:30;2.17;;;1.98;;
74530;SDS011;63010;55.668;37.878;2022-09-03T10:22:11;1.83;;;1.73;;
74530;SDS011;63010;55.668;37.878;2022-09-03T10:27:13;1.55;;;1.10;;
74530;SDS011;63010;55.668;37.878;2022-09-03T10:29:42;1.58;;;1.48;;
74530;SDS011;63010;55.668;37.878;2022-09-03T10:35:09;2.90;;;1.02;;
74530;SDS011;63010;55.668;37.878;2022-09-03T10:38:02;2.13;;;1.48;;
74530;SDS011;63010;55.668;37.878;2022-09-03T10:46:10;1.38;;;1.27;;
74530;SDS011;63010;55.668;37.878;2022-09-03T10:48:52;1.65;;;1.10;;
74530;SDS011;63010;55.668;37.878;2022-09-03T10:51:26;1.50;;;1.30;;
74530;SDS011;63010;55.668;37.878;2022-09-03T11:07:32;2.95;;;1.50;;
74530;SDS011;63010;55.668;37.878;2022-09-03T11:10:08;1.58;;;1.13;;
74530;SDS011;63010;55.668;37.878;2022-09-03T11:12:37;2.60;;;1.58;;
74530;SDS011;63010;55.668;37.878;2022-09-03T11:15:08;2.28;;;1.10;;
74530;SDS011;63010;55.668;37.878;2022-09-03T11:18:02;1.92;;;1.05;;
74530;SDS011;63010;55.668;37.878;2022-09-03T11:20:29;1.88;;;0.90;;
74530;SDS011;63010;55.668;37.878;2022-09-03T11:22:56;2.28;;;2.13;;
74530;SDS011;63010;55.668;37.878;2022-09-03T11:25:36;1.77;;;0.90;;
74530;SDS011;63010;55.668;37.878;2022-09-03T11:28:18;3.95;;;0.75;;
74530;SDS011;63010;55.668;37.878;2022-09-03T11:33:44;1.77;;;1.65;;
74530;SDS011;63010;55.668;37.878;2022-09-03T11:36:35;2.97;;;1.42;;
74530;SDS011;63010;55.668;37.878;2022-09-03T11:39:17;3.00;;;1.17;;
74530;SDS011;63010;55.668;37.878;2022-09-03T11:42:04;1.90;;;1.05;;
74530;SDS011;63010;55.668;37.878;2022-09-03T11:44:45;1.73;;;1.63;;
74530;SDS011;63010;55.668;37.878;2022-09-03T11:52:11;2.22;;;2.08;;
74530;SDS011;63010;55.668;37.878;2022-09-03T11:54:43;1.73;;;1.50;;
74530;SDS011;63010;55.668;37.878;2022-09-03T11:57:21;2.55;;;1.30;;
74530;SDS011;63010;55.668;37.878;2022-09-03T11:59:50;3.10;;;0.93;;
74530;SDS011;63010;55.668;37.878;2022-09-03T12:04:58;2.25;;;1.00;;
74530;SDS011;63010;55.668;37.878;2022-09-03T12:19:00;4.18;;;1.67;;
74530;SDS011;63010;55.668;37.878;2022-09-03T12:21:36;4.22;;;1.50;;
74530;SDS011;63010;55.668;37.878;2022-09-03T12:24:02;3.47;;;1.15;;
74530;SDS011;63010;55.668;37.878;2022-09-03T12:26:28;3.53;;;2.00;;
74530;SDS011;63010;55.668;37.878;2022-09-03T12:36:19;3.58;;;1.52;;
74530;SDS011;63010;55.668;37.878;2022-09-03T12:38:46;3.15;;;1.80;;
74530;SDS011;63010;55.668;37.878;2022-09-03T12:41:28;2.10;;;1.83;;
74530;SDS011;63010;55.668;37.878;2022-09-03T12:43:58;2.90;;;1.35;;
74530;SDS011;63010;55.668;37.878;2022-09-03T12:46:25;1.95;;;1.55;;
74530;SDS011;63010;55.668;37.878;2022-09-03T12:51:35;3.38;;;1.92;;
74530;SDS011;63010;55.668;37.878;2022-09-03T12:54:04;2.88;;;1.98;;
74530;SDS011;63010;55.668;37.878;2022-09-03T12:56:33;2.88;;;2.15;;
74530;SDS011;63010;55.668;37.878;2022-09-03T12:59:05;3.78;;;1.75;;
74530;SDS011;63010;55.668;37.878;2022-09-03T13:01:40;2.30;;;1.13;;
74530;SDS011;63010;55.668;37.878;2022-09-03T13:04:34;1.73;;;0.93;;
74530;SDS011;63010;55.668;37.878;2022-09-03T13:07:10;2.35;;;1.27;;
74530;SDS011;63010;55.668;37.878;2022-09-03T13:10:00;1.38;;;1.15;;
74530;SDS011;63010;55.668;37.878;2022-09-03T13:12:30;2.95;;;1.17;;
74530;SDS011;63010;55.668;37.878;2022-09-03T13:15:03;2.03;;;0.82;;
74530;SDS011;63010;55.668;37.878;2022-09-03T13:17:37;5.10;;;1.27;;
74530;SDS011;63010;55.668;37.878;2022-09-03T13:20:20;3.13;;;1.30;;
74530;SDS011;63010;55.668;37.878;2022-09-03T13:23:18;2.58;;;1.05;;
74530;SDS011;63010;55.668;37.878;2022-09-03T13:25:55;4.80;;;1.40;;
74530;SDS011;63010;55.668;37.878;2022-09-03T13:31:34;2.08;;;1.23;;
74530;SDS011;63010;55.668;37.878;2022-09-03T13:34:09;2.53;;;0.90;;
74530;SDS011;63010;55.668;37.878;2022-09-03T13:36:44;3.45;;;1.20;;
74530;SDS011;63010;55.668;37.878;2022-09-03T13:39:36;1.98;;;1.10;;
74530;SDS011;63010;55.668;37.878;2022-09-03T13:42:04;1.30;;;0.70;;
74530;SDS011;63010;55.668;37.878;2022-09-03T13:47:01;1.85;;;0.70;;
74530;SDS011;63010;55.668;37.878;2022-09-03T13:49:53;1.77;;;0.80;;
74530;SDS011;63010;55.668;37.878;2022-09-03T13:53:07;1.85;;;1.20;;
74530;SDS011;63010;55.668;37.878;2022-09-03T13:55:54;3.03;;;0.80;;
74530;SDS011;63010;55.668;37.878;2022-09-03T14:08:04;4.63;;;1.60;;
74530;SDS011;63010;55.668;37.878;2022-09-03T14:10:23;2.15;;;0.93;;
74530;SDS011;63010;55.668;37.878;2022-09-03T14:13:02;2.47;;;1.25;;
74530;SDS011;63010;55.668;37.878;2022-09-03T14:15:57;9.98;;;3.88;;
74530;SDS011;63010;55.668;37.878;2022-09-03T14:18:50;2.72;;;1.13;;
74530;SDS011;63010;55.668;37.878;2022-09-03T14:21:20;4.35;;;1.15;;
74530;SDS011;63010;55.668;37.878;2022-09-03T14:23:52;3.97;;;1.50;;
74530;SDS011;63010;55.668;37.878;2022-09-03T14:26:28;3.60;;;1.40;;
74530;SDS011;63010;55.668;37.878;2022-09-03T14:31:47;2.65;;;1.30;;
74530;SDS011;63010;55.668;37.878;2022-09-03T14:50:37;1.88;;;0.93;;
74530;SDS011;63010;55.668;37.878;2022-09-03T15:01:33;2.30;;;0.93;;
74530;SDS011;63010;55.668;37.878;2022-09-03T15:11:58;4.07;;;1.27;;
74530;SDS011;63010;55.668;37.878;2022-09-03T15:28:44;4.10;;;1.98;;
74530;SDS011;63010;55.668;37.878;2022-09-03T15:37:24;3.38;;;1.63;;
74530;SDS011;63010;55.668;37.878;2022-09-03T15:39:59;2.50;;;1.45;;
74530;SDS011;63010;55.668;37.878;2022-09-03T15:42:29;7.22;;;1.58;;
74530;SDS011;63010;55.668;37.878;2022-09-03T15:45:05;5.28;;;1.60;;
74530;SDS011;63010;55.668;37.878;2022-09-03T15:47:54;2.03;;;0.93;;
74530;SDS011;63010;55.668;37.878;2022-09-03T15:50:31;4.80;;;1.20;;
74530;SDS011;63010;55.668;37.878;2022-09-03T15:53:20;3.25;;;0.80;;
74530;SDS011;63010;55.668;37.878;2022-09-03T15:58:50;2.83;;;1.40;;
74530;SDS011;63010;55.668;37.878;2022-09-03T16:06:49;2.75;;;1.60;;
74530;SDS011;63010;55.668;37.878;2022-09-03T16:14:37;3.25;;;1.65;;
74530;SDS011;63010;55.668;37.878;2022-09-03T16:20:15;2.20;;;1.20;;
74530;SDS011;63010;55.668;37.878;2022-09-03T16:22:49;1.58;;;1.23;;
74530;SDS011;63010;55.668;37.878;2022-09-03T16:25:23;4.10;;;1.38;;
74530;SDS011;63010;55.668;37.878;2022-09-03T16:28:08;4.45;;;1.58;;
74530;SDS011;63010;55.668;37.878;2022-09-03T16:38:46;3.13;;;1.40;;
74530;SDS011;63010;55.668;37.878;2022-09-03T17:01:20;2.70;;;1.60;;
74530;SDS011;63010;55.668;37.878;2022-09-03T17:06:50;5.03;;;2.40;;
74530;SDS011;63010;55.668;37.878;2022-09-03T17:20:02;4.82;;;2.65;;
74530;SDS011;63010;55.668;37.878;2022-09-03T17:22:34;5.68;;;2.65;;
74530;SDS011;63010;55.668;37.878;2022-09-03T17:25:07;5.25;;;3.13;;
74530;SDS011;63010;55.668;37.878;2022-09-03T17:43:47;8.43;;;2.92;;
74530;SDS011;63010;55.668;37.878;2022-09-03T17:49:22;6.25;;;2.95;;
74530;SDS011;63010;55.668;37.878;2022-09-03T17:52:06;8.05;;;3.17;;
74530;SDS011;63010;55.668;37.878;2022-09-03T17:54:44;8.93;;;3.03;;
74530;SDS011;63010;55.668;37.878;2022-09-03T17:57:30;7.32;;;2.72;;
74530;SDS011;63010;55.668;37.878;2022-09-03T18:00:05;5.75;;;3.08;;
74530;SDS011;63010;55.668;37.878;2022-09-03T18:05:17;10.57;;;5.05;;
74530;SDS011;63010;55.668;37.878;2022-09-03T18:10:28;9.18;;;4.07;;
74530;SDS011;63010;55.668;37.878;2022-09-03T18:13:05;9.07;;;3.38;;
74530;SDS011;63010;55.668;37.878;2022-09-03T18:15:38;6.85;;;3.67;;
74530;SDS011;63010;55.668;37.878;2022-09-03T18:18:23;8.15;;;3.10;;
74530;SDS011;63010;55.668;37.878;2022-09-03T18:20:53;6.60;;;2.97;;
74530;SDS011;63010;55.668;37.878;2022-09-03T18:26:40;8.05;;;3.20;;
74530;SDS011;63010;55.668;37.878;2022-09-03T18:29:36;7.63;;;2.95;;
74530;SDS011;63010;55.668;37.878;2022-09-03T18:32:28;8.80;;;3.13;;
74530;SDS011;63010;55.668;37.878;2022-09-03T18:35:13;4.15;;;2.38;;
74530;SDS011;63010;55.668;37.878;2022-09-03T18:40:46;5.38;;;2.13;;
74530;SDS011;63010;55.668;37.878;2022-09-03T18:53:24;4.60;;;2.00;;
74530;SDS011;63010;55.668;37.878;2022-09-03T19:05:33;4.88;;;2.03;;
74530;SDS011;63010;55.668;37.878;2022-09-03T19:17:51;5.22;;;2.95;;
74530;SDS011;63010;55.668;37.878;2022-09-03T19:21:05;4.90;;;3.03;;
74530;SDS011;63010;55.668;37.878;2022-09-03T19:24:04;6.70;;;3.00;;
74530;SDS011;63010;55.668;37.878;2022-09-03T19:33:23;5.28;;;2.72;;
74530;SDS011;63010;55.668;37.878;2022-09-03T19:46:08;8.90;;;3.53;;
74530;SDS011;63010;55.668;37.878;2022-09-03T19:52:08;9.38;;;3.95;;
74530;SDS011;63010;55.668;37.878;2022-09-03T19:55:05;5.88;;;3.15;;
74530;SDS011;63010;55.668;37.878;2022-09-03T19:57:53;10.60;;;4.30;;
74530;SDS011;63010;55.668;37.878;2022-09-03T20:00:43;5.95;;;3.70;;
74530;SDS011;63010;55.668;37.878;2022-09-03T20:03:27;10.35;;;6.20;;
74530;SDS011;63010;55.668;37.878;2022-09-03T20:06:12;10.90;;;4.82;;
74530;SDS011;63010;55.668;37.878;2022-09-03T20:09:04;7.20;;;4.07;;
74530;SDS011;63010;55.668;37.878;2022-09-03T20:11:53;9.07;;;4.53;;
74530;SDS011;63010;55.668;37.878;2022-09-03T20:14:24;6.05;;;3.78;;
74530;SDS011;63010;55.668;37.878;2022-09-03T20:20:15;12.13;;;5.30;;
74530;SDS011;63010;55.668;37.878;2022-09-03T20:23:07;7.80;;;4.55;;
74530;SDS011;63010;55.668;37.878;2022-09-03T20:25:57;11.98;;;4.80;;
74530;SDS011;63010;55.668;37.878;2022-09-03T20:28:36;12.13;;;4.80;;
74530;SDS011;63010;55.668;37.878;2022-09-03T20:31:27;12.23;;;5.18;;
74530;SDS011;63010;55.668;37.878;2022-09-03T20:39:47;12.50;;;4.72;;
74530;SDS011;63010;55.668;37.878;2022-09-03T20:42:33;11.80;;;4.45;;
74530;SDS011;63010;55.668;37.878;2022-09-03T20:50:52;11.23;;;4.18;;
74530;SDS011;63010;55.668;37.878;2022-09-03T21:01:58;9.88;;;4.45;;
74530;SDS011;63010;55.668;37.878;2022-09-03T21:09:59;9.25;;;4.43;;
74530;SDS011;63010;55.668;37.878;2022-09-03T21:18:22;9.18;;;4.78;;
74530;SDS011;63010;55.668;37.878;2022-09-03T21:20:59;11.23;;;4.30;;
74530;SDS011;63010;55.668;37.878;2022-09-03T21:23:38;9.88;;;4.70;;
74530;SDS011;63010;55.668;37.878;2022-09-03T21:28:52;9.38;;;4.57;;
74530;SDS011;63010;55.668;37.878;2022-09-03T21:31:27;10.60;;;4.18;;
74530;SDS011;63010;55.668;37.878;2022-09-03T21:34:03;9.50;;;4.50;;
74530;SDS011;63010;55.668;37.878;2022-09-03T21:36:34;9.52;;;5.10;;
74530;SDS011;63010;55.668;37.878;2022-09-03T21:41:47;10.02;;;4.65;;
74530;SDS011;63010;55.668;37.878;2022-09-03T21:47:04;7.90;;;4.05;;
74530;SDS011;63010;55.668;37.878;2022-09-03T21:50:19;7.13;;;4.32;;
74530;SDS011;63010;55.668;37.878;2022-09-03T21:55:22;7.28;;;4.18;;
74530;SDS011;63010;55.668;37.878;2022-09-03T22:00:25;6.68;;;3.88;;
74530;SDS011;63010;55.668;37.878;2022-09-03T22:02:56;12.35;;;4.30;;
74530;SDS011;63010;55.668;37.878;2022-09-03T22:05:23;10.02;;;4.30;;